PWSweather.com
Personal Weather Stations
Station Observations

KentGB

Lat: 51.355058, Lon: 1.256518

Elevation: 24

Station Type: Davis

http://stnichweather.co.uk

High Low Average
Temperature 67.0°F19.4°C 49.1°F9.5°C 58.6°F14.8°C
Dew Point 59.5°F15.3°C 38.5°F3.6°C 46.0°F7.8°C
Winds 18.4 mph 29.6 kmh Calm Calm 9.0 mph SW14.5 kmh SW
Wind Gusts 28.8 mph46.3 kmh 2.3 mph3.7 kmh 16.0 mph25.7 kmh
Humidity 87% 47% 64%
Pressure 29.56 in1001.0 mb 29.26 in990.9 mb -
Precipitation 0.04 in1.0 mm - -
Hour Temp Dew Point Humidity Winds Wind Gusts Pressure Precip Precip Rate Daily Precip Total
12:00 AM 58.1°F14.5°C 54.3°F12.4°C 87% 18.4 mph S29.6 kmh S 26.5 mph42.6 kmh 29.41 in995.9 mb - 0.00 in0.0 mm 0.02 in0.5 mm
12:15 AM 58.8°F14.9°C 54.9°F12.7°C 87% 18.4 mph S29.6 kmh S 25.3 mph40.7 kmh 29.41 in995.9 mb - 0.00 in0.0 mm 0.02 in0.5 mm
12:30 AM 59.3°F15.2°C 55.4°F13.0°C 87% 16.1 mph S25.9 kmh S 24.2 mph38.9 kmh 29.41 in995.9 mb - 0.00 in0.0 mm 0.02 in0.5 mm
12:45 AM 59.9°F15.5°C 56.0°F13.3°C 87% 17.3 mph SSW27.8 kmh SSW 24.2 mph38.9 kmh 29.41 in995.9 mb - 0.00 in0.0 mm 0.02 in0.5 mm
01:00 AM 60.1°F15.6°C 56.2°F13.4°C 87% 13.8 mph SSW22.2 kmh SSW 23.0 mph37.0 kmh 29.41 in995.9 mb - 0.01 in0.3 mm 0.03 in0.8 mm
01:15 AM 60.7°F15.9°C 55.2°F12.9°C 82% 12.7 mph SW20.4 kmh SW 19.6 mph31.5 kmh 29.29 in991.9 mb - 0.00 in0.0 mm 0.03 in0.8 mm
01:30 AM 60.6°F15.9°C 55.1°F12.8°C 82% 16.1 mph SW25.9 kmh SW 24.2 mph38.9 kmh 29.29 in991.9 mb - 0.00 in0.0 mm 0.03 in0.8 mm
01:45 AM 60.1°F15.6°C 54.6°F12.6°C 82% 11.5 mph SW18.5 kmh SW 16.1 mph25.9 kmh 29.29 in991.9 mb - 0.00 in0.0 mm 0.03 in0.8 mm
02:00 AM 60.4°F15.8°C 54.9°F12.7°C 82% 11.5 mph SW18.5 kmh SW 20.7 mph33.3 kmh 29.29 in991.9 mb - 0.00 in0.0 mm 0.03 in0.8 mm
02:15 AM 60.4°F15.8°C 51.3°F10.7°C 72% 12.7 mph SW20.4 kmh SW 21.9 mph35.2 kmh 29.29 in991.9 mb - 0.00 in0.0 mm 0.03 in0.8 mm
02:30 AM 59.9°F15.5°C 50.8°F10.4°C 72% 18.4 mph SW29.6 kmh SW 26.5 mph42.6 kmh 29.29 in991.9 mb - 0.00 in0.0 mm 0.03 in0.8 mm
02:45 AM 59.0°F15.0°C 50.0°F10.0°C 72% 13.8 mph SW22.2 kmh SW 28.8 mph46.3 kmh 29.29 in991.9 mb - 0.00 in0.0 mm 0.03 in0.8 mm
03:00 AM 59.2°F15.1°C 50.1°F10.1°C 72% 17.3 mph SW27.8 kmh SW 26.5 mph42.6 kmh 29.29 in991.9 mb - 0.00 in0.0 mm 0.03 in0.8 mm
03:15 AM 59.1°F15.1°C 50.1°F10.1°C 72% 18.4 mph SW29.6 kmh SW 24.2 mph38.9 kmh 29.29 in991.9 mb - 0.00 in0.0 mm 0.03 in0.8 mm
03:30 AM 59.3°F15.2°C 48.3°F9.1°C 67% 17.3 mph SW27.8 kmh SW 25.3 mph40.7 kmh 29.26 in990.9 mb - 0.00 in0.0 mm 0.03 in0.8 mm
03:45 AM 59.2°F15.1°C 46.2°F7.9°C 62% 17.3 mph SW27.8 kmh SW 28.8 mph46.3 kmh 29.29 in991.9 mb - 0.00 in0.0 mm 0.03 in0.8 mm
04:00 AM 58.6°F14.8°C 45.6°F7.6°C 62% 12.7 mph WSW20.4 kmh WSW 26.5 mph42.6 kmh 29.29 in991.9 mb - 0.00 in0.0 mm 0.03 in0.8 mm
04:15 AM 58.7°F14.8°C 45.7°F7.6°C 62% 11.5 mph WSW18.5 kmh WSW 19.6 mph31.5 kmh 29.32 in992.9 mb - 0.00 in0.0 mm 0.03 in0.8 mm
04:30 AM 58.7°F14.8°C 45.7°F7.6°C 62% 10.4 mph WSW16.7 kmh WSW 23.0 mph37.0 kmh 29.32 in992.9 mb - 0.00 in0.0 mm 0.03 in0.8 mm
04:45 AM 58.1°F14.5°C 43.4°F6.3°C 58% 8.1 mph W13.0 kmh W 18.4 mph29.6 kmh 29.32 in992.9 mb - 0.00 in0.0 mm 0.03 in0.8 mm
05:00 AM 57.5°F14.2°C 42.9°F6.1°C 58% 8.1 mph W13.0 kmh W 13.8 mph22.2 kmh 29.32 in992.9 mb - 0.00 in0.0 mm 0.03 in0.8 mm
05:15 AM 57.1°F13.9°C 44.2°F6.8°C 62% 10.4 mph WSW16.7 kmh WSW 19.6 mph31.5 kmh 29.35 in993.9 mb - 0.00 in0.0 mm 0.03 in0.8 mm
05:30 AM 56.3°F13.5°C 43.5°F6.4°C 62% 6.9 mph WSW11.1 kmh WSW 11.5 mph18.5 kmh 29.35 in993.9 mb - 0.00 in0.0 mm 0.03 in0.8 mm
05:45 AM 55.9°F13.3°C 43.0°F6.1°C 62% 8.1 mph WSW13.0 kmh WSW 12.7 mph20.4 kmh 29.38 in994.9 mb - 0.00 in0.0 mm 0.03 in0.8 mm
06:00 AM 55.8°F13.2°C 43.0°F6.1°C 62% 8.1 mph WSW13.0 kmh WSW 16.1 mph25.9 kmh 29.38 in994.9 mb - 0.00 in0.0 mm 0.03 in0.8 mm
06:15 AM 55.8°F13.2°C 43.0°F6.1°C 62% 10.4 mph WSW16.7 kmh WSW 16.1 mph25.9 kmh 29.38 in994.9 mb - 0.00 in0.0 mm 0.03 in0.8 mm
06:30 AM 55.9°F13.3°C 43.0°F6.1°C 62% 9.2 mph WSW14.8 kmh WSW 19.6 mph31.5 kmh 29.38 in994.9 mb - 0.00 in0.0 mm 0.03 in0.8 mm
06:45 AM 56.0°F13.3°C 41.0°F5.0°C 57% 8.1 mph WSW13.0 kmh WSW 19.6 mph31.5 kmh 29.41 in995.9 mb - 0.00 in0.0 mm 0.03 in0.8 mm
07:00 AM 56.3°F13.5°C 41.2°F5.1°C 57% 10.4 mph WSW16.7 kmh WSW 17.3 mph27.8 kmh 29.41 in995.9 mb - 0.00 in0.0 mm 0.03 in0.8 mm
07:15 AM 56.8°F13.8°C 43.9°F6.6°C 62% 10.4 mph WSW16.7 kmh WSW 12.7 mph20.4 kmh 29.44 in997.0 mb - 0.00 in0.0 mm 0.03 in0.8 mm
07:30 AM 57.1°F13.9°C 44.2°F6.8°C 62% 11.5 mph WSW18.5 kmh WSW 26.5 mph42.6 kmh 29.44 in997.0 mb - 0.00 in0.0 mm 0.03 in0.8 mm
07:45 AM 57.5°F14.2°C 42.8°F6.0°C 58% 9.2 mph WSW14.8 kmh WSW 16.1 mph25.9 kmh 29.44 in997.0 mb - 0.00 in0.0 mm 0.03 in0.8 mm
08:00 AM 58.0°F14.4°C 43.3°F6.3°C 58% 10.4 mph WSW16.7 kmh WSW 18.4 mph29.6 kmh 29.44 in997.0 mb - 0.00 in0.0 mm 0.03 in0.8 mm
08:15 AM 58.3°F14.6°C 43.6°F6.4°C 58% 12.7 mph WSW20.4 kmh WSW 23.0 mph37.0 kmh 29.47 in998.0 mb - 0.00 in0.0 mm 0.03 in0.8 mm
08:30 AM 58.9°F14.9°C 44.1°F6.7°C 58% 10.4 mph SW16.7 kmh SW 19.6 mph31.5 kmh 29.47 in998.0 mb - 0.00 in0.0 mm 0.03 in0.8 mm
08:45 AM 59.5°F15.3°C 44.7°F7.1°C 58% 11.5 mph WSW18.5 kmh WSW 19.6 mph31.5 kmh 29.47 in998.0 mb - 0.00 in0.0 mm 0.03 in0.8 mm
09:00 AM 59.6°F15.3°C 44.8°F7.1°C 58% 11.5 mph WSW18.5 kmh WSW 21.9 mph35.2 kmh 29.47 in998.0 mb - 0.00 in0.0 mm 0.03 in0.8 mm
09:15 AM 60.2°F15.7°C 43.5°F6.4°C 54% 10.4 mph WSW16.7 kmh WSW 18.4 mph29.6 kmh 29.50 in999.0 mb - 0.00 in0.0 mm 0.03 in0.8 mm
09:30 AM 60.9°F16.1°C 44.1°F6.7°C 54% 9.2 mph WSW14.8 kmh WSW 12.7 mph20.4 kmh 29.50 in999.0 mb - 0.00 in0.0 mm 0.03 in0.8 mm
09:45 AM 61.5°F16.4°C 44.7°F7.1°C 54% 11.5 mph WSW18.5 kmh WSW 17.3 mph27.8 kmh 29.50 in999.0 mb - 0.00 in0.0 mm 0.03 in0.8 mm
10:00 AM 62.2°F16.8°C 45.4°F7.4°C 54% 10.4 mph WSW16.7 kmh WSW 20.7 mph33.3 kmh 29.50 in999.0 mb - 0.00 in0.0 mm 0.03 in0.8 mm
10:15 AM 63.1°F17.3°C 44.7°F7.1°C 51% 8.1 mph WSW13.0 kmh WSW 15.0 mph24.1 kmh 29.53 in1000.0 mb - 0.00 in0.0 mm 0.03 in0.8 mm
10:30 AM 63.7°F17.6°C 45.3°F7.4°C 51% 9.2 mph WSW14.8 kmh WSW 21.9 mph35.2 kmh 29.53 in1000.0 mb - 0.00 in0.0 mm 0.03 in0.8 mm
10:45 AM 64.3°F17.9°C 43.6°F6.4°C 47% 9.2 mph WSW14.8 kmh WSW 18.4 mph29.6 kmh 29.53 in1000.0 mb - 0.00 in0.0 mm 0.03 in0.8 mm
11:00 AM 64.4°F18.0°C 43.8°F6.6°C 47% 11.5 mph WSW18.5 kmh WSW 13.8 mph22.2 kmh 29.53 in1000.0 mb - 0.00 in0.0 mm 0.03 in0.8 mm
11:15 AM 65.3°F18.5°C 45.1°F7.3°C 48% 9.2 mph WSW14.8 kmh WSW 20.7 mph33.3 kmh 29.53 in1000.0 mb - 0.00 in0.0 mm 0.03 in0.8 mm
11:30 AM 64.2°F17.9°C 44.1°F6.7°C 48% 13.8 mph SW22.2 kmh SW 19.6 mph31.5 kmh 29.53 in1000.0 mb - 0.00 in0.0 mm 0.03 in0.8 mm
11:45 AM 66.2°F19.0°C 46.0°F7.8°C 48% 10.4 mph SW16.7 kmh SW 13.8 mph22.2 kmh 29.53 in1000.0 mb - 0.00 in0.0 mm 0.03 in0.8 mm
12:00 PM 67.0°F19.4°C 46.6°F8.1°C 48% 8.1 mph WSW13.0 kmh WSW 17.3 mph27.8 kmh 29.53 in1000.0 mb - 0.00 in0.0 mm 0.03 in0.8 mm
12:15 PM 64.8°F18.2°C 44.7°F7.1°C 48% 11.5 mph SW18.5 kmh SW 20.7 mph33.3 kmh 29.53 in1000.0 mb - 0.00 in0.0 mm 0.03 in0.8 mm
12:30 PM 66.0°F18.9°C 45.8°F7.7°C 48% 11.5 mph SW18.5 kmh SW 20.7 mph33.3 kmh 29.53 in1000.0 mb - 0.00 in0.0 mm 0.03 in0.8 mm
12:45 PM 65.7°F18.7°C 49.1°F9.5°C 55% 12.7 mph SW20.4 kmh SW 20.7 mph33.3 kmh 29.53 in1000.0 mb - 0.00 in0.0 mm 0.03 in0.8 mm
01:00 PM 66.8°F19.3°C 50.1°F10.1°C 55% 17.3 mph SW27.8 kmh SW 21.9 mph35.2 kmh 29.53 in1000.0 mb - 0.00 in0.0 mm 0.03 in0.8 mm
01:15 PM 66.7°F19.3°C 51.4°F10.8°C 58% 11.5 mph SW18.5 kmh SW 19.6 mph31.5 kmh 29.53 in1000.0 mb - 0.00 in0.0 mm 0.03 in0.8 mm
01:30 PM 66.0°F18.9°C 50.8°F10.4°C 58% 11.5 mph WSW18.5 kmh WSW 19.6 mph31.5 kmh 29.53 in1000.0 mb - 0.00 in0.0 mm 0.03 in0.8 mm
01:45 PM 66.1°F18.9°C 45.8°F7.7°C 48% 12.7 mph SW20.4 kmh SW 19.6 mph31.5 kmh 29.53 in1000.0 mb - 0.00 in0.0 mm 0.03 in0.8 mm
02:00 PM 65.6°F18.7°C 45.3°F7.4°C 48% 12.7 mph SW20.4 kmh SW 17.3 mph27.8 kmh 29.53 in1000.0 mb - 0.00 in0.0 mm 0.03 in0.8 mm
02:15 PM 65.1°F18.4°C 48.6°F9.2°C 55% 13.8 mph SW22.2 kmh SW 24.2 mph38.9 kmh 29.53 in1000.0 mb - 0.00 in0.0 mm 0.03 in0.8 mm
02:30 PM 65.7°F18.7°C 49.1°F9.5°C 55% 13.8 mph SW22.2 kmh SW 19.6 mph31.5 kmh 29.53 in1000.0 mb - 0.00 in0.0 mm 0.03 in0.8 mm
02:45 PM 65.5°F18.6°C 59.5°F15.3°C 81% 11.5 mph SW18.5 kmh SW 17.3 mph27.8 kmh 29.53 in1000.0 mb - 0.00 in0.0 mm 0.03 in0.8 mm
03:00 PM 64.7°F18.2°C 58.7°F14.8°C 81% 10.4 mph SW16.7 kmh SW 20.7 mph33.3 kmh 29.53 in1000.0 mb - 0.00 in0.0 mm 0.03 in0.8 mm
03:15 PM 64.4°F18.0°C 56.6°F13.7°C 76% 12.7 mph SW20.4 kmh SW 15.0 mph24.1 kmh 29.53 in1000.0 mb - 0.00 in0.0 mm 0.03 in0.8 mm
03:30 PM 61.7°F16.5°C 54.0°F12.2°C 76% 11.5 mph SW18.5 kmh SW 15.0 mph24.1 kmh 29.53 in1000.0 mb - 0.00 in0.0 mm 0.03 in0.8 mm
03:45 PM 58.2°F14.6°C 50.7°F10.4°C 76% 11.5 mph SW18.5 kmh SW 16.1 mph25.9 kmh 29.53 in1000.0 mb - 0.01 in0.3 mm 0.04 in1.0 mm
04:00 PM 58.8°F14.9°C 51.2°F10.7°C 76% 9.2 mph SW14.8 kmh SW 13.8 mph22.2 kmh 29.53 in1000.0 mb - 0.00 in0.0 mm 0.04 in1.0 mm
04:15 PM 59.6°F15.3°C 48.6°F9.2°C 67% 9.2 mph SW14.8 kmh SW 12.7 mph20.4 kmh 29.50 in999.0 mb - 0.00 in0.0 mm 0.04 in1.0 mm
04:30 PM 59.6°F15.3°C 48.6°F9.2°C 67% 5.8 mph SW9.3 kmh SW 11.5 mph18.5 kmh 29.50 in999.0 mb - 0.00 in0.0 mm 0.04 in1.0 mm
04:45 PM 59.0°F15.0°C 46.0°F7.8°C 62% 6.9 mph SW11.1 kmh SW 12.7 mph20.4 kmh 29.50 in999.0 mb - 0.00 in0.0 mm 0.04 in1.0 mm
05:00 PM 58.5°F14.7°C 45.5°F7.5°C 62% 5.8 mph SSW9.3 kmh SSW 11.5 mph18.5 kmh 29.50 in999.0 mb - 0.00 in0.0 mm 0.04 in1.0 mm
05:15 PM 58.7°F14.8°C 44.0°F6.7°C 58% 4.6 mph SW7.4 kmh SW 9.2 mph14.8 kmh 29.50 in999.0 mb - 0.00 in0.0 mm 0.04 in1.0 mm
05:30 PM 57.8°F14.3°C 43.1°F6.2°C 58% 6.9 mph SW11.1 kmh SW 11.5 mph18.5 kmh 29.50 in999.0 mb - 0.00 in0.0 mm 0.04 in1.0 mm
05:45 PM 57.0°F13.9°C 44.1°F6.7°C 62% 4.6 mph SW7.4 kmh SW 9.2 mph14.8 kmh 29.50 in999.0 mb - 0.00 in0.0 mm 0.04 in1.0 mm
06:00 PM 56.4°F13.6°C 43.6°F6.4°C 62% 6.9 mph SW11.1 kmh SW 10.4 mph16.7 kmh 29.50 in999.0 mb - 0.00 in0.0 mm 0.04 in1.0 mm
06:15 PM 56.0°F13.3°C 41.4°F5.2°C 58% 6.9 mph SW11.1 kmh SW 10.4 mph16.7 kmh 29.50 in999.0 mb - 0.00 in0.0 mm 0.04 in1.0 mm
06:30 PM 55.3°F12.9°C 40.8°F4.9°C 58% 5.8 mph SW9.3 kmh SW 6.9 mph11.1 kmh 29.50 in999.0 mb - 0.00 in0.0 mm 0.04 in1.0 mm
06:45 PM 55.1°F12.8°C 40.5°F4.7°C 58% 4.6 mph SW7.4 kmh SW 5.8 mph9.3 kmh 29.53 in1000.0 mb - 0.00 in0.0 mm 0.04 in1.0 mm
07:00 PM 54.5°F12.5°C 40.0°F4.4°C 58% 2.3 mph SW3.7 kmh SW 5.8 mph9.3 kmh 29.53 in1000.0 mb - 0.00 in0.0 mm 0.04 in1.0 mm
07:15 PM 54.2°F12.3°C 43.1°F6.2°C 66% 3.5 mph SW5.6 kmh SW 4.6 mph7.4 kmh 29.53 in1000.0 mb - 0.00 in0.0 mm 0.04 in1.0 mm
07:30 PM 53.5°F11.9°C 42.4°F5.8°C 66% 1.2 mph SW1.9 kmh SW 2.3 mph3.7 kmh 29.53 in1000.0 mb - 0.00 in0.0 mm 0.04 in1.0 mm
07:45 PM 53.4°F11.9°C 42.3°F5.7°C 66% 1.2 mph SW1.9 kmh SW 4.6 mph7.4 kmh 29.53 in1000.0 mb - 0.00 in0.0 mm 0.04 in1.0 mm
08:00 PM 53.2°F11.8°C 42.1°F5.6°C 66% 3.5 mph SW5.6 kmh SW 6.9 mph11.1 kmh 29.53 in1000.0 mb - 0.00 in0.0 mm 0.04 in1.0 mm
08:15 PM 52.9°F11.6°C 43.7°F6.5°C 71% 2.3 mph SW3.7 kmh SW 3.5 mph5.6 kmh 29.53 in1000.0 mb - 0.00 in0.0 mm 0.04 in1.0 mm
08:30 PM 52.5°F11.4°C 43.4°F6.3°C 71% 4.6 mph SW7.4 kmh SW 6.9 mph11.1 kmh 29.53 in1000.0 mb - 0.00 in0.0 mm 0.04 in1.0 mm
08:45 PM 52.6°F11.4°C 39.9°F4.4°C 62% 5.8 mph SW9.3 kmh SW 8.1 mph13.0 kmh 29.56 in1001.0 mb - 0.00 in0.0 mm 0.04 in1.0 mm
09:00 PM 51.8°F11.0°C 39.2°F4.0°C 62% 4.6 mph SW7.4 kmh SW 9.2 mph14.8 kmh 29.56 in1001.0 mb - 0.00 in0.0 mm 0.04 in1.0 mm
09:15 PM 51.7°F10.9°C 40.7°F4.8°C 66% 4.6 mph SW7.4 kmh SW 6.9 mph11.1 kmh 29.56 in1001.0 mb - 0.00 in0.0 mm 0.04 in1.0 mm
09:30 PM 51.9°F11.1°C 40.9°F4.9°C 66% 2.3 mph WSW3.7 kmh WSW 6.9 mph11.1 kmh 29.56 in1001.0 mb - 0.00 in0.0 mm 0.04 in1.0 mm
09:45 PM 51.9°F11.1°C 40.9°F4.9°C 66% 4.6 mph SW7.4 kmh SW 8.1 mph13.0 kmh 29.56 in1001.0 mb - 0.00 in0.0 mm 0.04 in1.0 mm
10:00 PM 51.8°F11.0°C 40.8°F4.9°C 66% 4.6 mph SW7.4 kmh SW 6.9 mph11.1 kmh 29.56 in1001.0 mb - 0.00 in0.0 mm 0.04 in1.0 mm
10:15 PM 51.8°F11.0°C 40.8°F4.9°C 66% 3.5 mph SW5.6 kmh SW 6.9 mph11.1 kmh 29.56 in1001.0 mb - 0.00 in0.0 mm 0.04 in1.0 mm
10:30 PM 51.6°F10.9°C 40.6°F4.8°C 66% 2.3 mph W3.7 kmh W 8.1 mph13.0 kmh 29.56 in1001.0 mb - 0.00 in0.0 mm 0.04 in1.0 mm
10:45 PM 51.5°F10.8°C 40.5°F4.7°C 66% 2.3 mph SW3.7 kmh SW 3.5 mph5.6 kmh 29.56 in1001.0 mb - 0.00 in0.0 mm 0.04 in1.0 mm
11:00 PM 50.3°F10.2°C 39.4°F4.1°C 66% Calm Calm 2.3 mph3.7 kmh 29.56 in1001.0 mb - 0.00 in0.0 mm 0.02 in0.5 mm
11:15 PM 49.8°F9.9°C 38.9°F3.8°C 66% Calm Calm 2.3 mph3.7 kmh 29.56 in1001.0 mb - 0.00 in0.0 mm 0.02 in0.5 mm
11:30 PM 49.4°F9.7°C 38.5°F3.6°C 66% 1.2 mph SW1.9 kmh SW 2.3 mph3.7 kmh 29.56 in1001.0 mb - 0.00 in0.0 mm 0.02 in0.5 mm
11:45 PM 49.1°F9.5°C 41.9°F5.5°C 76% 2.3 mph SW3.7 kmh SW 3.5 mph5.6 kmh 29.56 in1001.0 mb - 0.00 in0.0 mm 0.02 in0.5 mm